sensor_id;sensor_type;location;lat;lon;timestamp;pressure;altitude;pressure_sealevel;temperature;humidity
51759;BME280;66684;47.568;18.734;2023-04-04T00:00:15;99747.13;;;-0.17;64.88
51759;BME280;66684;47.568;18.734;2023-04-04T00:02:41;99744.84;;;-0.24;65.08
51759;BME280;66684;47.568;18.734;2023-04-04T00:05:07;99741.03;;;-0.29;65.39
51759;BME280;66684;47.568;18.734;2023-04-04T00:07:33;99738.09;;;-0.34;65.62
51759;BME280;66684;47.568;18.734;2023-04-04T00:09:59;99741.50;;;-0.43;65.86
51759;BME280;66684;47.568;18.734;2023-04-04T00:12:25;99732.59;;;-0.48;66.30
51759;BME280;66684;47.568;18.734;2023-04-04T00:14:51;99732.31;;;-0.51;66.47
51759;BME280;66684;47.568;18.734;2023-04-04T00:17:17;99736.88;;;-0.58;66.92
51759;BME280;66684;47.568;18.734;2023-04-04T00:19:43;99734.84;;;-0.62;67.24
51759;BME280;66684;47.568;18.734;2023-04-04T00:22:09;99731.56;;;-0.61;66.87
51759;BME280;66684;47.568;18.734;2023-04-04T00:24:35;99729.50;;;-0.65;67.33
51759;BME280;66684;47.568;18.734;2023-04-04T00:27:02;99724.19;;;-0.68;67.27
51759;BME280;66684;47.568;18.734;2023-04-04T00:29:28;99729.84;;;-0.70;67.05
51759;BME280;66684;47.568;18.734;2023-04-04T00:31:54;99730.12;;;-0.67;66.60
51759;BME280;66684;47.568;18.734;2023-04-04T00:34:19;99735.56;;;-0.73;67.49
51759;BME280;66684;47.568;18.734;2023-04-04T00:36:46;99735.09;;;-0.69;66.45
51759;BME280;66684;47.568;18.734;2023-04-04T00:39:12;99744.19;;;-0.71;66.84
51759;BME280;66684;47.568;18.734;2023-04-04T00:41:38;99738.09;;;-0.73;67.11
51759;BME280;66684;47.568;18.734;2023-04-04T00:44:04;99740.88;;;-0.70;66.85
51759;BME280;66684;47.568;18.734;2023-04-04T00:46:31;99734.75;;;-0.82;66.93
51759;BME280;66684;47.568;18.734;2023-04-04T00:48:57;99738.88;;;-0.74;66.58
51759;BME280;66684;47.568;18.734;2023-04-04T00:51:24;99738.59;;;-0.77;66.92
51759;BME280;66684;47.568;18.734;2023-04-04T00:53:50;99742.13;;;-0.85;67.11
51759;BME280;66684;47.568;18.734;2023-04-04T00:56:17;99738.34;;;-0.80;67.08
51759;BME280;66684;47.568;18.734;2023-04-04T00:58:43;99733.50;;;-0.77;66.06
51759;BME280;66684;47.568;18.734;2023-04-04T01:01:10;99727.66;;;-0.86;66.78
51759;BME280;66684;47.568;18.734;2023-04-04T01:03:36;99731.19;;;-0.84;66.65
51759;BME280;66684;47.568;18.734;2023-04-04T01:06:02;99736.28;;;-0.84;66.84
51759;BME280;66684;47.568;18.734;2023-04-04T01:08:29;99726.53;;;-0.79;66.39
51759;BME280;66684;47.568;18.734;2023-04-04T01:10:54;99732.50;;;-0.79;66.54
51759;BME280;66684;47.568;18.734;2023-04-04T01:13:21;99723.59;;;-0.84;66.54
51759;BME280;66684;47.568;18.734;2023-04-04T01:15:47;99719.81;;;-0.79;66.39
51759;BME280;66684;47.568;18.734;2023-04-04T01:18:16;99716.88;;;-0.84;66.75
51759;BME280;66684;47.568;18.734;2023-04-04T01:20:51;99716.56;;;-0.97;67.45
51759;BME280;66684;47.568;18.734;2023-04-04T01:23:20;99703.78;;;-0.88;67.25
51759;BME280;66684;47.568;18.734;2023-04-04T01:25:47;99698.88;;;-0.76;66.59
51759;BME280;66684;47.568;18.734;2023-04-04T01:28:13;99700.53;;;-0.87;67.03
51759;BME280;66684;47.568;18.734;2023-04-04T01:30:40;99701.75;;;-0.92;66.99
51759;BME280;66684;47.568;18.734;2023-04-04T01:33:18;99700.06;;;-1.02;67.93
51759;BME280;66684;47.568;18.734;2023-04-04T01:35:55;99697.41;;;-1.03;67.95
51759;BME280;66684;47.568;18.734;2023-04-04T01:38:29;99693.22;;;-1.03;68.37
51759;BME280;66684;47.568;18.734;2023-04-04T01:41:07;99686.25;;;-0.95;67.72
51759;BME280;66684;47.568;18.734;2023-04-04T01:43:33;99693.97;;;-1.04;68.65
51759;BME280;66684;47.568;18.734;2023-04-04T01:45:59;99689.41;;;-1.27;69.84
51759;BME280;66684;47.568;18.734;2023-04-04T01:48:25;99684.66;;;-1.43;69.71
51759;BME280;66684;47.568;18.734;2023-04-04T01:50:52;99687.31;;;-1.41;70.21
51759;BME280;66684;47.568;18.734;2023-04-04T01:53:18;99672.87;;;-1.42;70.30
51759;BME280;66684;47.568;18.734;2023-04-04T01:55:44;99677.19;;;-1.41;70.21
51759;BME280;66684;47.568;18.734;2023-04-04T01:58:10;99659.56;;;-1.40;70.56
51759;BME280;66684;47.568;18.734;2023-04-04T02:00:36;99654.38;;;-1.41;70.19
51759;BME280;66684;47.568;18.734;2023-04-04T02:03:02;99653.09;;;-1.46;70.50
51759;BME280;66684;47.568;18.734;2023-04-04T02:05:28;99645.53;;;-1.36;69.98
51759;BME280;66684;47.568;18.734;2023-04-04T02:07:54;99642.00;;;-1.38;70.50
51759;BME280;66684;47.568;18.734;2023-04-04T02:10:20;99648.06;;;-1.36;70.37
51759;BME280;66684;47.568;18.734;2023-04-04T02:12:46;99647.31;;;-1.35;70.28
51759;BME280;66684;47.568;18.734;2023-04-04T02:15:12;99647.06;;;-1.38;70.61
51759;BME280;66684;47.568;18.734;2023-04-04T02:17:38;99647.19;;;-1.37;70.89
51759;BME280;66684;47.568;18.734;2023-04-04T02:20:06;99646.78;;;-1.41;71.08
51759;BME280;66684;47.568;18.734;2023-04-04T02:22:32;99635.87;;;-1.40;71.32
51759;BME280;66684;47.568;18.734;2023-04-04T02:24:58;99639.41;;;-1.48;72.00
51759;BME280;66684;47.568;18.734;2023-04-04T02:27:27;99638.16;;;-1.43;72.92
51759;BME280;66684;47.568;18.734;2023-04-04T02:29:53;99638.06;;;-1.34;72.61
51759;BME280;66684;47.568;18.734;2023-04-04T02:32:19;99622.31;;;-1.41;73.06
51759;BME280;66684;47.568;18.734;2023-04-04T02:34:46;99625.09;;;-1.48;73.69
51759;BME280;66684;47.568;18.734;2023-04-04T02:37:12;99619.56;;;-1.33;73.63
51759;BME280;66684;47.568;18.734;2023-04-04T02:39:38;99615.03;;;-1.27;73.22
51759;BME280;66684;47.568;18.734;2023-04-04T02:42:04;99617.34;;;-1.49;74.51
51759;BME280;66684;47.568;18.734;2023-04-04T02:44:30;99620.44;;;-1.43;74.59
51759;BME280;66684;47.568;18.734;2023-04-04T02:46:55;99623.72;;;-1.44;74.58
51759;BME280;66684;47.568;18.734;2023-04-04T02:49:22;99613.25;;;-1.57;74.23
51759;BME280;66684;47.568;18.734;2023-04-04T02:51:48;99608.94;;;-1.58;74.93
51759;BME280;66684;47.568;18.734;2023-04-04T02:54:14;99600.53;;;-1.68;75.14
51759;BME280;66684;47.568;18.734;2023-04-04T02:56:40;99602.47;;;-1.84;76.27
51759;BME280;66684;47.568;18.734;2023-04-04T02:59:06;99604.06;;;-1.76;76.50
51759;BME280;66684;47.568;18.734;2023-04-04T03:01:33;99602.22;;;-1.87;76.47
51759;BME280;66684;47.568;18.734;2023-04-04T03:03:58;99608.50;;;-1.92;76.84
51759;BME280;66684;47.568;18.734;2023-04-04T03:06:25;99598.03;;;-1.86;76.77
51759;BME280;66684;47.568;18.734;2023-04-04T03:08:50;99614.78;;;-1.97;77.41
51759;BME280;66684;47.568;18.734;2023-04-04T03:11:17;99617.31;;;-1.97;77.86
51759;BME280;66684;47.568;18.734;2023-04-04T03:13:44;99613.56;;;-1.92;77.19
51759;BME280;66684;47.568;18.734;2023-04-04T03:16:11;99620.75;;;-1.97;77.53
51759;BME280;66684;47.568;18.734;2023-04-04T03:18:39;99621.91;;;-1.93;77.76
51759;BME280;66684;47.568;18.734;2023-04-04T03:21:06;99628.47;;;-1.95;78.10
51759;BME280;66684;47.568;18.734;2023-04-04T03:23:32;99632.72;;;-2.04;78.15
51759;BME280;66684;47.568;18.734;2023-04-04T03:25:57;99632.03;;;-1.93;78.34
51759;BME280;66684;47.568;18.734;2023-04-04T03:28:23;99631.97;;;-1.84;77.98
51759;BME280;66684;47.568;18.734;2023-04-04T03:30:49;99637.91;;;-1.84;77.46
51759;BME280;66684;47.568;18.734;2023-04-04T03:33:15;99634.44;;;-1.95;77.98
51759;BME280;66684;47.568;18.734;2023-04-04T03:35:41;99636.69;;;-2.17;79.03
51759;BME280;66684;47.568;18.734;2023-04-04T03:38:08;99637.69;;;-2.14;79.77
51759;BME280;66684;47.568;18.734;2023-04-04T03:40:34;99646.44;;;-2.30;80.13
51759;BME280;66684;47.568;18.734;2023-04-04T03:43:00;99640.38;;;-2.32;81.19
51759;BME280;66684;47.568;18.734;2023-04-04T03:45:27;99643.16;;;-2.29;80.74
51759;BME280;66684;47.568;18.734;2023-04-04T03:47:57;99635.25;;;-2.23;81.04
51759;BME280;66684;47.568;18.734;2023-04-04T03:50:23;99644.81;;;-2.29;80.89
51759;BME280;66684;47.568;18.734;2023-04-04T03:52:49;99642.59;;;-2.35;81.48
51759;BME280;66684;47.568;18.734;2023-04-04T03:55:15;99639.12;;;-2.27;81.03
51759;BME280;66684;47.568;18.734;2023-04-04T03:57:41;99641.09;;;-2.33;81.14
51759;BME280;66684;47.568;18.734;2023-04-04T04:00:07;99652.91;;;-2.42;81.51
51759;BME280;66684;47.568;18.734;2023-04-04T04:02:33;99648.25;;;-2.56;82.83
51759;BME280;66684;47.568;18.734;2023-04-04T04:04:59;99646.28;;;-2.50;82.96
51759;BME280;66684;47.568;18.734;2023-04-04T04:07:25;99642.34;;;-2.38;82.08
51759;BME280;66684;47.568;18.734;2023-04-04T04:09:51;99647.75;;;-2.52;82.18
51759;BME280;66684;47.568;18.734;2023-04-04T04:12:17;99645.78;;;-2.46;82.45
51759;BME280;66684;47.568;18.734;2023-04-04T04:14:42;99655.88;;;-2.37;82.29
51759;BME280;66684;47.568;18.734;2023-04-04T04:17:08;99646.91;;;-2.34;81.78
51759;BME280;66684;47.568;18.734;2023-04-04T04:19:35;99652.81;;;-2.25;81.15
51759;BME280;66684;47.568;18.734;2023-04-04T04:22:01;99648.91;;;-2.21;80.61
51759;BME280;66684;47.568;18.734;2023-04-04T04:24:26;99647.34;;;-2.10;80.43
51759;BME280;66684;47.568;18.734;2023-04-04T04:26:52;99646.47;;;-2.11;80.72
51759;BME280;66684;47.568;18.734;2023-04-04T04:29:18;99644.53;;;-2.32;81.80
51759;BME280;66684;47.568;18.734;2023-04-04T04:31:44;99640.53;;;-2.11;80.04
51759;BME280;66684;47.568;18.734;2023-04-04T04:34:10;99635.72;;;-2.08;80.33
51759;BME280;66684;47.568;18.734;2023-04-04T04:36:36;99635.72;;;-2.08;80.71
51759;BME280;66684;47.568;18.734;2023-04-04T04:39:02;99636.22;;;-2.12;80.96
51759;BME280;66684;47.568;18.734;2023-04-04T04:41:28;99627.19;;;-2.19;81.08
51759;BME280;66684;47.568;18.734;2023-04-04T04:43:54;99632.25;;;-2.19;81.30
51759;BME280;66684;47.568;18.734;2023-04-04T04:46:20;99633.88;;;-2.20;81.16
51759;BME280;66684;47.568;18.734;2023-04-04T04:48:46;99634.16;;;-2.17;81.28
51759;BME280;66684;47.568;18.734;2023-04-04T04:51:12;99639.31;;;-2.06;80.37
51759;BME280;66684;47.568;18.734;2023-04-04T04:53:40;99640.25;;;-1.96;79.68
51759;BME280;66684;47.568;18.734;2023-04-04T04:56:06;99648.38;;;-1.90;79.52
51759;BME280;66684;47.568;18.734;2023-04-04T04:58:32;99632.84;;;-1.84;78.98
51759;BME280;66684;47.568;18.734;2023-04-04T05:00:58;99633.47;;;-1.86;78.84
51759;BME280;66684;47.568;18.734;2023-04-04T05:03:24;99633.16;;;-1.81;78.55
51759;BME280;66684;47.568;18.734;2023-04-04T05:05:50;99630.75;;;-1.79;78.85
51759;BME280;66684;47.568;18.734;2023-04-04T05:08:16;99627.56;;;-1.77;78.34
51759;BME280;66684;47.568;18.734;2023-04-04T05:10:42;99626.09;;;-1.75;78.67
51759;BME280;66684;47.568;18.734;2023-04-04T05:13:08;99612.44;;;-1.67;78.02
51759;BME280;66684;47.568;18.734;2023-04-04T05:15:34;99615.22;;;-1.64;77.50
51759;BME280;66684;47.568;18.734;2023-04-04T05:18:00;99620.13;;;-1.56;77.60
51759;BME280;66684;47.568;18.734;2023-04-04T05:20:26;99628.44;;;-1.57;78.18
51759;BME280;66684;47.568;18.734;2023-04-04T05:22:52;99637.09;;;-1.55;77.83
51759;BME280;66684;47.568;18.734;2023-04-04T05:25:18;99628.94;;;-1.61;78.02
51759;BME280;66684;47.568;18.734;2023-04-04T05:27:47;99631.31;;;-1.44;77.09
51759;BME280;66684;47.568;18.734;2023-04-04T05:30:14;99631.03;;;-1.47;77.85
51759;BME280;66684;47.568;18.734;2023-04-04T05:32:40;99629.69;;;-1.44;76.85
51759;BME280;66684;47.568;18.734;2023-04-04T05:35:06;99624.28;;;-1.28;75.70
51759;BME280;66684;47.568;18.734;2023-04-04T05:37:32;99621.38;;;-1.22;76.78
51759;BME280;66684;47.568;18.734;2023-04-04T05:39:58;99616.62;;;-1.09;75.04
51759;BME280;66684;47.568;18.734;2023-04-04T05:42:24;99617.50;;;-1.09;75.48
51759;BME280;66684;47.568;18.734;2023-04-04T05:44:50;99615.53;;;-0.92;74.49
51759;BME280;66684;47.568;18.734;2023-04-04T05:47:16;99628.69;;;-0.96;75.20
51759;BME280;66684;47.568;18.734;2023-04-04T05:49:42;99630.81;;;-1.01;75.69
51759;BME280;66684;47.568;18.734;2023-04-04T05:52:08;99640.63;;;-0.95;75.12
51759;BME280;66684;47.568;18.734;2023-04-04T05:54:35;99644.47;;;-0.80;74.72
51759;BME280;66684;47.568;18.734;2023-04-04T05:57:01;99648.78;;;-0.79;74.31
51759;BME280;66684;47.568;18.734;2023-04-04T05:59:26;99651.13;;;-0.62;74.38
51759;BME280;66684;47.568;18.734;2023-04-04T06:01:53;99649.75;;;-0.38;72.21
51759;BME280;66684;47.568;18.734;2023-04-04T06:04:19;99661.28;;;-0.21;72.28
51759;BME280;66684;47.568;18.734;2023-04-04T06:06:45;99657.72;;;-0.33;72.42
51759;BME280;66684;47.568;18.734;2023-04-04T06:09:11;99659.00;;;-0.28;72.50
51759;BME280;66684;47.568;18.734;2023-04-04T06:11:37;99661.56;;;-0.18;72.55
51759;BME280;66684;47.568;18.734;2023-04-04T06:14:03;99659.28;;;-0.15;72.63
51759;BME280;66684;47.568;18.734;2023-04-04T06:16:29;99665.13;;;-0.06;71.57
51759;BME280;66684;47.568;18.734;2023-04-04T06:18:56;99667.88;;;0.18;70.89
51759;BME280;66684;47.568;18.734;2023-04-04T06:21:21;99659.25;;;0.26;70.34
51759;BME280;66684;47.568;18.734;2023-04-04T06:23:47;99649.81;;;0.35;68.50
51759;BME280;66684;47.568;18.734;2023-04-04T06:26:13;99651.97;;;0.51;68.06
51759;BME280;66684;47.568;18.734;2023-04-04T06:28:49;99662.47;;;0.66;67.91
51759;BME280;66684;47.568;18.734;2023-04-04T06:31:16;99648.19;;;0.68;66.97
51759;BME280;66684;47.568;18.734;2023-04-04T06:33:42;99646.16;;;0.74;68.00
51759;BME280;66684;47.568;18.734;2023-04-04T06:36:08;99657.09;;;0.73;66.90
51759;BME280;66684;47.568;18.734;2023-04-04T06:38:34;99645.75;;;0.79;66.30
51759;BME280;66684;47.568;18.734;2023-04-04T06:41:00;99646.31;;;0.65;65.90
51759;BME280;66684;47.568;18.734;2023-04-04T06:43:25;99654.47;;;0.93;67.31
51759;BME280;66684;47.568;18.734;2023-04-04T06:45:52;99662.25;;;1.17;66.52
51759;BME280;66684;47.568;18.734;2023-04-04T06:48:18;99649.22;;;1.24;64.38
51759;BME280;66684;47.568;18.734;2023-04-04T06:50:44;99642.94;;;1.30;65.40
51759;BME280;66684;47.568;18.734;2023-04-04T06:53:10;99617.22;;;1.16;64.95
51759;BME280;66684;47.568;18.734;2023-04-04T06:55:36;99615.06;;;1.32;64.57
51759;BME280;66684;47.568;18.734;2023-04-04T06:58:02;99615.25;;;1.45;64.80
51759;BME280;66684;47.568;18.734;2023-04-04T07:00:28;99608.91;;;1.40;63.43
51759;BME280;66684;47.568;18.734;2023-04-04T07:02:58;99613.34;;;1.43;63.42
51759;BME280;66684;47.568;18.734;2023-04-04T07:05:24;99618.59;;;1.56;63.61
51759;BME280;66684;47.568;18.734;2023-04-04T07:07:54;99606.75;;;1.56;62.30
51759;BME280;66684;47.568;18.734;2023-04-04T07:10:22;99616.94;;;1.56;61.81
51759;BME280;66684;47.568;18.734;2023-04-04T07:12:48;99617.34;;;1.51;63.25
51759;BME280;66684;47.568;18.734;2023-04-04T07:15:14;99621.34;;;1.47;61.46
51759;BME280;66684;47.568;18.734;2023-04-04T07:17:40;99613.19;;;1.51;62.19
51759;BME280;66684;47.568;18.734;2023-04-04T07:20:07;99605.88;;;1.56;61.83
51759;BME280;66684;47.568;18.734;2023-04-04T07:22:39;99596.81;;;1.59;61.49
51759;BME280;66684;47.568;18.734;2023-04-04T07:25:06;99610.38;;;1.70;63.69
51759;BME280;66684;47.568;18.734;2023-04-04T07:27:32;99605.50;;;1.85;61.67
51759;BME280;66684;47.568;18.734;2023-04-04T07:29:58;99625.25;;;1.99;60.92
51759;BME280;66684;47.568;18.734;2023-04-04T07:32:24;99624.59;;;1.90;61.41
51759;BME280;66684;47.568;18.734;2023-04-04T07:34:49;99630.47;;;1.89;61.10
51759;BME280;66684;47.568;18.734;2023-04-04T07:37:15;99627.47;;;2.06;61.28
51759;BME280;66684;47.568;18.734;2023-04-04T07:39:41;99633.28;;;2.15;60.04
51759;BME280;66684;47.568;18.734;2023-04-04T07:42:07;99617.84;;;2.02;61.52
51759;BME280;66684;47.568;18.734;2023-04-04T07:44:33;99619.75;;;2.16;61.07
51759;BME280;66684;47.568;18.734;2023-04-04T07:47:00;99626.63;;;2.17;60.65
51759;BME280;66684;47.568;18.734;2023-04-04T07:49:26;99639.25;;;2.16;60.83
51759;BME280;66684;47.568;18.734;2023-04-04T07:51:51;99630.94;;;2.19;60.95
51759;BME280;66684;47.568;18.734;2023-04-04T07:54:17;99622.16;;;2.03;60.22
51759;BME280;66684;47.568;18.734;2023-04-04T07:56:43;99622.19;;;2.15;59.76
51759;BME280;66684;47.568;18.734;2023-04-04T07:59:09;99634.25;;;2.17;59.33
51759;BME280;66684;47.568;18.734;2023-04-04T08:01:35;99627.28;;;2.15;59.67
51759;BME280;66684;47.568;18.734;2023-04-04T08:04:01;99607.22;;;2.31;59.85
51759;BME280;66684;47.568;18.734;2023-04-04T08:06:27;99607.56;;;2.36;59.44
51759;BME280;66684;47.568;18.734;2023-04-04T08:08:53;99606.09;;;2.51;57.93
51759;BME280;66684;47.568;18.734;2023-04-04T08:11:19;99610.66;;;2.55;57.28
51759;BME280;66684;47.568;18.734;2023-04-04T08:13:45;99611.09;;;2.85;57.73
51759;BME280;66684;47.568;18.734;2023-04-04T08:16:11;99613.19;;;2.79;55.32
51759;BME280;66684;47.568;18.734;2023-04-04T08:18:37;99613.53;;;2.83;55.92
51759;BME280;66684;47.568;18.734;2023-04-04T08:21:04;99607.47;;;3.06;55.52
51759;BME280;66684;47.568;18.734;2023-04-04T08:23:30;99614.09;;;3.28;56.08
51759;BME280;66684;47.568;18.734;2023-04-04T08:25:56;99608.09;;;3.27;52.77
51759;BME280;66684;47.568;18.734;2023-04-04T08:28:25;99615.84;;;3.29;54.52
51759;BME280;66684;47.568;18.734;2023-04-04T08:30:52;99614.34;;;3.44;53.75
51759;BME280;66684;47.568;18.734;2023-04-04T08:33:20;99613.34;;;3.42;53.67
51759;BME280;66684;47.568;18.734;2023-04-04T08:35:46;99602.50;;;3.33;52.54
51759;BME280;66684;47.568;18.734;2023-04-04T08:38:12;99610.44;;;3.49;53.70
51759;BME280;66684;47.568;18.734;2023-04-04T08:40:38;99623.44;;;3.52;52.01
51759;BME280;66684;47.568;18.734;2023-04-04T08:43:04;99615.25;;;3.33;52.30
51759;BME280;66684;47.568;18.734;2023-04-04T08:45:31;99606.47;;;3.41;53.23
51759;BME280;66684;47.568;18.734;2023-04-04T08:48:00;99604.91;;;3.43;53.50
51759;BME280;66684;47.568;18.734;2023-04-04T08:50:28;99608.56;;;3.71;53.69
51759;BME280;66684;47.568;18.734;2023-04-04T08:52:55;99596.97;;;3.76;53.48
51759;BME280;66684;47.568;18.734;2023-04-04T08:55:23;99606.66;;;3.94;54.69
51759;BME280;66684;47.568;18.734;2023-04-04T08:57:49;99600.72;;;3.82;52.82
51759;BME280;66684;47.568;18.734;2023-04-04T09:00:15;99608.62;;;3.98;51.66
51759;BME280;66684;47.568;18.734;2023-04-04T09:02:51;99603.22;;;4.06;48.04
51759;BME280;66684;47.568;18.734;2023-04-04T09:05:20;99594.56;;;4.04;51.43
51759;BME280;66684;47.568;18.734;2023-04-04T09:07:46;99587.72;;;4.56;52.77
51759;BME280;66684;47.568;18.734;2023-04-04T09:10:12;99587.59;;;4.68;51.82
51759;BME280;66684;47.568;18.734;2023-04-04T09:12:41;99588.50;;;4.69;51.45
51759;BME280;66684;47.568;18.734;2023-04-04T09:15:08;99588.19;;;4.24;49.88
51759;BME280;66684;47.568;18.734;2023-04-04T09:17:34;99582.09;;;4.09;50.52
51759;BME280;66684;47.568;18.734;2023-04-04T09:20:02;99571.66;;;4.19;49.93
51759;BME280;66684;47.568;18.734;2023-04-04T09:22:31;99564.47;;;4.14;49.03
51759;BME280;66684;47.568;18.734;2023-04-04T09:24:57;99569.25;;;4.34;50.11
51759;BME280;66684;47.568;18.734;2023-04-04T09:27:23;99571.00;;;4.35;50.24
51759;BME280;66684;47.568;18.734;2023-04-04T09:29:49;99567.97;;;4.41;49.37
51759;BME280;66684;47.568;18.734;2023-04-04T09:32:15;99578.75;;;4.63;50.64
51759;BME280;66684;47.568;18.734;2023-04-04T09:34:43;99573.25;;;4.57;48.66
51759;BME280;66684;47.568;18.734;2023-04-04T09:37:09;99570.69;;;4.57;48.20
51759;BME280;66684;47.568;18.734;2023-04-04T09:39:39;99560.81;;;4.76;47.84
51759;BME280;66684;47.568;18.734;2023-04-04T09:42:06;99566.25;;;4.68;47.67
51759;BME280;66684;47.568;18.734;2023-04-04T09:44:35;99555.16;;;4.54;47.14
51759;BME280;66684;47.568;18.734;2023-04-04T09:47:24;99572.84;;;4.51;47.03
51759;BME280;66684;47.568;18.734;2023-04-04T09:49:50;99570.00;;;4.59;47.66
51759;BME280;66684;47.568;18.734;2023-04-04T09:52:18;99554.31;;;4.81;47.13
51759;BME280;66684;47.568;18.734;2023-04-04T09:55:00;99554.25;;;4.67;46.67
51759;BME280;66684;47.568;18.734;2023-04-04T09:57:31;99564.16;;;4.75;46.42
51759;BME280;66684;47.568;18.734;2023-04-04T10:00:00;99553.19;;;5.04;47.39
51759;BME280;66684;47.568;18.734;2023-04-04T10:02:26;99548.69;;;5.43;46.16
51759;BME280;66684;47.568;18.734;2023-04-04T10:04:55;99543.72;;;5.31;45.53
51759;BME280;66684;47.568;18.734;2023-04-04T10:07:27;99546.28;;;5.31;45.50
51759;BME280;66684;47.568;18.734;2023-04-04T10:09:54;99529.72;;;5.11;45.71
51759;BME280;66684;47.568;18.734;2023-04-04T10:12:24;99539.13;;;5.40;46.50
51759;BME280;66684;47.568;18.734;2023-04-04T10:15:00;99543.72;;;5.46;46.51
51759;BME280;66684;47.568;18.734;2023-04-04T10:17:31;99544.06;;;5.37;45.74
51759;BME280;66684;47.568;18.734;2023-04-04T10:20:03;99536.16;;;5.48;45.74
51759;BME280;66684;47.568;18.734;2023-04-04T10:22:32;99534.31;;;5.75;46.65
51759;BME280;66684;47.568;18.734;2023-04-04T10:24:58;99539.03;;;5.97;44.18
51759;BME280;66684;47.568;18.734;2023-04-04T10:27:25;99527.06;;;5.82;44.23
51759;BME280;66684;47.568;18.734;2023-04-04T10:29:51;99532.03;;;5.79;46.37
51759;BME280;66684;47.568;18.734;2023-04-04T10:32:22;99536.25;;;5.64;44.59
51759;BME280;66684;47.568;18.734;2023-04-04T10:35:01;99526.03;;;5.79;44.79
51759;BME280;66684;47.568;18.734;2023-04-04T10:37:31;99525.84;;;5.76;42.73
51759;BME280;66684;47.568;18.734;2023-04-04T10:40:15;99523.41;;;5.92;45.93
51759;BME280;66684;47.568;18.734;2023-04-04T10:42:45;99509.84;;;5.94;44.11
51759;BME280;66684;47.568;18.734;2023-04-04T10:45:16;99502.59;;;6.02;45.35
51759;BME280;66684;47.568;18.734;2023-04-04T10:47:43;99514.38;;;5.99;46.12
51759;BME280;66684;47.568;18.734;2023-04-04T10:50:10;99502.38;;;5.84;43.29
51759;BME280;66684;47.568;18.734;2023-04-04T10:52:40;99507.72;;;5.87;43.20
51759;BME280;66684;47.568;18.734;2023-04-04T10:55:09;99508.25;;;5.97;44.18
51759;BME280;66684;47.568;18.734;2023-04-04T10:57:38;99507.47;;;6.12;42.98
51759;BME280;66684;47.568;18.734;2023-04-04T11:00:06;99502.94;;;6.23;44.47
51759;BME280;66684;47.568;18.734;2023-04-04T11:02:59;99503.81;;;6.09;42.80
51759;BME280;66684;47.568;18.734;2023-04-04T11:05:38;99491.81;;;5.93;41.97
51759;BME280;66684;47.568;18.734;2023-04-04T11:08:18;99494.97;;;5.74;43.36
51759;BME280;66684;47.568;18.734;2023-04-04T11:10:48;99484.00;;;6.21;44.89
51759;BME280;66684;47.568;18.734;2023-04-04T11:13:16;99501.62;;;6.46;43.42
51759;BME280;66684;47.568;18.734;2023-04-04T11:19:07;99493.31;;;6.50;41.10
51759;BME280;66684;47.568;18.734;2023-04-04T11:21:09;99489.38;;;6.57;41.34
51759;BME280;66684;47.568;18.734;2023-04-04T11:26:18;99479.44;;;7.28;41.29
51759;BME280;66684;47.568;18.734;2023-04-04T11:29:03;99495.38;;;7.05;40.98
51759;BME280;66684;47.568;18.734;2023-04-04T11:31:42;99478.00;;;6.68;41.00
51759;BME280;66684;47.568;18.734;2023-04-04T11:34:09;99478.06;;;6.53;40.27
51759;BME280;66684;47.568;18.734;2023-04-04T11:44:09;99477.63;;;6.76;39.57
51759;BME280;66684;47.568;18.734;2023-04-04T11:46:36;99478.62;;;6.64;39.96
51759;BME280;66684;47.568;18.734;2023-04-04T11:49:02;99474.47;;;6.66;40.50
51759;BME280;66684;47.568;18.734;2023-04-04T11:51:30;99464.53;;;6.72;39.69
51759;BME280;66684;47.568;18.734;2023-04-04T11:53:56;99471.88;;;6.49;40.57
51759;BME280;66684;47.568;18.734;2023-04-04T11:56:22;99454.84;;;6.66;39.44
51759;BME280;66684;47.568;18.734;2023-04-04T11:58:50;99464.25;;;6.98;41.19
51759;BME280;66684;47.568;18.734;2023-04-04T12:01:17;99462.03;;;7.22;39.01
51759;BME280;66684;47.568;18.734;2023-04-04T12:03:43;99459.56;;;7.08;38.58
51759;BME280;66684;47.568;18.734;2023-04-04T12:06:10;99461.88;;;7.03;39.53
51759;BME280;66684;47.568;18.734;2023-04-04T12:08:36;99450.59;;;6.99;39.71
51759;BME280;66684;47.568;18.734;2023-04-04T12:11:06;99447.22;;;7.17;39.32
51759;BME280;66684;47.568;18.734;2023-04-04T12:13:40;99445.59;;;7.53;39.69
51759;BME280;66684;47.568;18.734;2023-04-04T12:16:07;99446.94;;;7.63;39.25
51759;BME280;66684;47.568;18.734;2023-04-04T12:18:33;99450.91;;;7.56;38.02
51759;BME280;66684;47.568;18.734;2023-04-04T12:20:59;99445.97;;;7.26;38.36
51759;BME280;66684;47.568;18.734;2023-04-04T12:23:25;99431.53;;;7.12;40.23
51759;BME280;66684;47.568;18.734;2023-04-04T12:25:53;99432.66;;;7.51;38.21
51759;BME280;66684;47.568;18.734;2023-04-04T12:28:21;99435.75;;;7.44;39.27
51759;BME280;66684;47.568;18.734;2023-04-04T12:30:48;99425.47;;;7.44;37.38
51759;BME280;66684;47.568;18.734;2023-04-04T12:33:14;99430.97;;;7.18;37.69
51759;BME280;66684;47.568;18.734;2023-04-04T12:35:40;99428.56;;;7.21;38.14
51759;BME280;66684;47.568;18.734;2023-04-04T12:38:06;99422.56;;;7.38;36.84
51759;BME280;66684;47.568;18.734;2023-04-04T12:40:37;99420.56;;;7.33;37.41
51759;BME280;66684;47.568;18.734;2023-04-04T12:43:07;99423.50;;;7.56;37.76
51759;BME280;66684;47.568;18.734;2023-04-04T12:45:39;99417.50;;;7.40;36.71
51759;BME280;66684;47.568;18.734;2023-04-04T12:48:10;99419.91;;;7.71;39.74
51759;BME280;66684;47.568;18.734;2023-04-04T12:50:56;99404.31;;;7.50;37.80
51759;BME280;66684;47.568;18.734;2023-04-04T12:53:26;99409.75;;;7.56;38.34
51759;BME280;66684;47.568;18.734;2023-04-04T12:55:55;99409.47;;;7.68;37.67
51759;BME280;66684;47.568;18.734;2023-04-04T12:58:23;99419.59;;;7.65;38.73
51759;BME280;66684;47.568;18.734;2023-04-04T13:00:52;99406.44;;;7.58;38.18
51759;BME280;66684;47.568;18.734;2023-04-04T13:03:22;99400.66;;;7.63;37.15
51759;BME280;66684;47.568;18.734;2023-04-04T13:05:49;99391.84;;;7.93;38.06
51759;BME280;66684;47.568;18.734;2023-04-04T13:08:17;99398.44;;;7.88;37.14